createdAt,value
2018-10-03T00:00:55.692Z,2.03
2018-10-03T00:03:24.870Z,3.07
2018-10-03T00:05:53.967Z,1.70
2018-10-03T00:08:22.368Z,2.20
2018-10-03T00:10:51.416Z,0.77
2018-10-03T00:13:20.333Z,1.50
2018-10-03T00:15:49.597Z,1.13
2018-10-03T00:18:18.198Z,1.90
2018-10-03T00:20:46.964Z,1.53
2018-10-03T00:23:15.835Z,1.00
2018-10-03T00:25:45.576Z,1.63
2018-10-03T00:28:14.740Z,2.17
2018-10-03T00:30:43.942Z,1.33
2018-10-03T00:33:13.221Z,3.27
2018-10-03T00:35:42.133Z,2.23
2018-10-03T00:38:11.246Z,1.37
2018-10-03T00:40:40.513Z,1.90
2018-10-03T00:43:10.840Z,1.23
2018-10-03T00:45:39.168Z,2.53
2018-10-03T00:48:08.649Z,1.50
2018-10-03T00:50:37.746Z,2.13
2018-10-03T00:53:07.289Z,0.60
2018-10-03T00:55:36.868Z,4.13
2018-10-03T00:58:05.708Z,2.80
2018-10-03T01:00:34.465Z,1.73
2018-10-03T01:03:03.729Z,1.40
2018-10-03T01:05:32.566Z,0.63
2018-10-03T01:08:01.872Z,0.97
2018-10-03T01:10:30.749Z,1.00
2018-10-03T01:12:59.734Z,0.90
2018-10-03T01:15:28.764Z,1.00
2018-10-03T01:17:57.545Z,0.83
2018-10-03T01:20:27.245Z,2.50
2018-10-03T01:22:56.129Z,1.30
2018-10-03T01:25:24.966Z,0.80
2018-10-03T01:27:53.953Z,0.60
2018-10-03T01:30:23.020Z,2.53
2018-10-03T01:32:51.968Z,1.43
2018-10-03T01:35:20.605Z,2.03
2018-10-03T01:37:49.319Z,2.03
2018-10-03T01:40:18.497Z,1.60
2018-10-03T01:42:47.433Z,1.50
2018-10-03T01:45:16.526Z,1.67
2018-10-03T01:47:45.832Z,0.80
2018-10-03T01:50:14.742Z,1.13
2018-10-03T01:52:43.425Z,0.53
2018-10-03T01:55:12.621Z,1.83
2018-10-03T01:57:42.200Z,3.30
2018-10-03T02:00:11.498Z,0.60
2018-10-03T02:02:40.109Z,1.70
2018-10-03T02:05:09.085Z,4.83
2018-10-03T02:07:38.384Z,0.60
2018-10-03T02:10:06.793Z,1.40
2018-10-03T02:12:35.965Z,2.87
2018-10-03T02:15:05.090Z,2.43
2018-10-03T02:17:34.268Z,1.23
2018-10-03T02:20:03.537Z,1.03
2018-10-03T02:22:32.111Z,1.73
2018-10-03T02:25:00.957Z,0.70
2018-10-03T02:27:30.677Z,0.80
2018-10-03T02:29:59.661Z,2.00
2018-10-03T02:32:28.296Z,3.47
2018-10-03T02:34:57.192Z,1.90
2018-10-03T02:37:26.433Z,2.40
2018-10-03T02:39:54.949Z,1.47
2018-10-03T02:42:23.869Z,2.10
2018-10-03T02:44:52.829Z,1.10
2018-10-03T02:47:22.142Z,1.00
2018-10-03T02:49:51.651Z,2.27
2018-10-03T02:52:21.205Z,3.80
2018-10-03T02:54:50.302Z,2.27
2018-10-03T02:57:19.424Z,1.20
2018-10-03T02:59:48.041Z,2.00
2018-10-03T03:02:17.157Z,8.40
2018-10-03T03:04:47.208Z,4.73
2018-10-03T03:07:16.269Z,9.77
2018-10-03T03:09:44.797Z,10.20
2018-10-03T03:12:14.015Z,3.37
2018-10-03T03:14:42.698Z,7.87
2018-10-03T03:17:11.833Z,10.30
2018-10-03T03:19:41.057Z,7.63
2018-10-03T03:22:10.368Z,5.90
2018-10-03T03:24:39.666Z,7.63
2018-10-03T03:27:08.561Z,13.57
2018-10-03T03:29:37.765Z,8.30
2018-10-03T03:32:06.153Z,7.83
2018-10-03T03:34:35.033Z,4.40
2018-10-03T03:37:04.158Z,12.67
2018-10-03T03:39:33.065Z,6.23
2018-10-03T03:42:02.182Z,10.47
2018-10-03T03:44:31.150Z,10.33
2018-10-03T03:47:00.446Z,7.43
2018-10-03T03:49:29.276Z,7.90
2018-10-03T03:51:57.814Z,5.93
2018-10-03T03:54:26.433Z,3.57
2018-10-03T03:56:55.336Z,6.17
2018-10-03T03:59:24.232Z,3.00
2018-10-03T04:01:53.485Z,1.80
2018-10-03T04:04:22.716Z,2.73
2018-10-03T04:06:52.005Z,2.60
2018-10-03T04:09:21.153Z,1.37
2018-10-03T04:11:50.395Z,1.13
2018-10-03T04:14:19.158Z,1.93
2018-10-03T04:16:48.261Z,2.00
2018-10-03T04:19:18.085Z,1.70
2018-10-03T04:21:47.073Z,4.27
2018-10-03T04:24:15.709Z,1.77
2018-10-03T04:26:45.020Z,1.77
2018-10-03T04:29:14.050Z,2.80
2018-10-03T04:31:43.787Z,1.57
2018-10-03T04:34:16.132Z,2.63
2018-10-03T04:36:45.640Z,4.27
2018-10-03T04:39:15.121Z,4.60
2018-10-03T04:41:44.856Z,6.87
2018-10-03T04:44:14.169Z,10.63
2018-10-03T04:46:42.705Z,5.63
2018-10-03T04:49:12.038Z,4.17
2018-10-03T04:51:40.857Z,6.73
2018-10-03T04:54:10.272Z,5.33
2018-10-03T04:56:39.805Z,8.67
2018-10-03T04:59:08.736Z,9.30
2018-10-03T05:01:38.100Z,9.47
2018-10-03T05:04:07.913Z,13.13
2018-10-03T05:06:36.990Z,7.63
2018-10-03T05:09:06.553Z,9.10
2018-10-03T05:11:35.906Z,8.03
2018-10-03T05:14:04.463Z,4.13
2018-10-03T05:16:33.228Z,10.37
2018-10-03T05:19:03.035Z,9.80
2018-10-03T05:21:31.645Z,6.47
2018-10-03T05:24:00.598Z,10.80
2018-10-03T05:26:29.849Z,9.40
2018-10-03T05:28:58.765Z,6.10
2018-10-03T05:31:27.694Z,12.47
2018-10-03T05:33:56.846Z,7.43
2018-10-03T05:36:29.715Z,6.70
2018-10-03T05:38:57.969Z,3.10
2018-10-03T05:41:26.640Z,3.40
2018-10-03T05:43:55.633Z,6.30
2018-10-03T05:46:24.836Z,5.73
2018-10-03T05:48:53.578Z,2.97
2018-10-03T05:51:22.493Z,10.63
2018-10-03T05:53:51.480Z,9.60
2018-10-03T05:56:20.718Z,5.77
2018-10-03T05:58:49.287Z,3.50
2018-10-03T06:01:18.216Z,9.80
2018-10-03T06:03:46.817Z,5.97
2018-10-03T06:06:15.794Z,12.00
2018-10-03T06:08:44.963Z,10.57
2018-10-03T06:11:13.992Z,4.90
2018-10-03T06:13:43.923Z,7.47
2018-10-03T12:49:51.780Z,0.97
2018-10-03T12:52:20.665Z,2.83
2018-10-03T12:54:49.322Z,1.93
2018-10-03T12:57:17.925Z,2.07
2018-10-03T12:59:46.720Z,3.97
2018-10-03T13:02:15.741Z,4.47
2018-10-03T13:04:44.417Z,5.20
2018-10-03T13:07:12.998Z,2.57
2018-10-03T13:09:41.525Z,1.67
2018-10-03T13:12:10.906Z,2.53
2018-10-03T13:14:39.903Z,2.83
2018-10-03T13:17:08.765Z,4.03
2018-10-03T13:19:38.252Z,3.33
2018-10-03T13:22:06.807Z,5.90
2018-10-03T13:24:35.799Z,5.10
2018-10-03T13:27:04.665Z,1.93
2018-10-03T13:29:33.887Z,3.57
2018-10-03T13:32:03.016Z,2.10
2018-10-03T13:34:31.294Z,2.10
2018-10-03T13:37:00.576Z,7.00
2018-10-03T13:39:29.018Z,1.13
2018-10-03T13:41:58.245Z,3.03
2018-10-03T13:44:27.159Z,4.47
2018-10-03T13:46:56.052Z,2.47
2018-10-03T13:49:25.529Z,1.97
2018-10-03T13:51:53.805Z,1.87
2018-10-03T13:54:22.253Z,2.03
2018-10-03T13:56:51.224Z,1.47
2018-10-03T13:59:20.277Z,1.17
2018-10-03T14:01:49.046Z,3.50
2018-10-03T14:04:17.944Z,3.67
2018-10-03T14:06:47.258Z,4.00
2018-10-03T14:09:16.419Z,3.50
2018-10-03T14:11:45.689Z,1.93
2018-10-03T14:14:14.377Z,4.63
2018-10-03T14:16:43.172Z,1.23
2018-10-03T14:19:11.807Z,3.03
2018-10-03T14:21:40.995Z,3.60
2018-10-03T14:24:09.849Z,1.37
2018-10-03T14:26:38.457Z,1.77
2018-10-03T14:29:07.753Z,2.57
2018-10-03T14:31:37.153Z,3.20
2018-10-03T14:34:06.152Z,2.57
2018-10-03T14:36:34.861Z,3.97
2018-10-03T14:39:04.693Z,0.70
2018-10-03T14:41:33.541Z,1.37
2018-10-03T14:44:02.687Z,0.83
2018-10-03T14:46:31.293Z,2.70
2018-10-03T14:49:00.653Z,4.00
2018-10-03T14:51:29.013Z,2.67
2018-10-03T14:53:57.763Z,2.23
2018-10-03T14:56:27.013Z,2.37
2018-10-03T14:58:55.833Z,4.20
2018-10-03T15:01:24.454Z,3.87
2018-10-03T15:03:53.503Z,1.53
2018-10-03T15:06:23.109Z,4.00
2018-10-03T15:08:52.308Z,1.83
2018-10-03T15:11:20.914Z,2.93
2018-10-03T15:13:49.532Z,2.47
2018-10-03T15:16:18.490Z,1.97
2018-10-03T15:18:47.388Z,2.07
2018-10-03T15:21:15.901Z,2.17
2018-10-03T15:23:44.497Z,1.27
2018-10-03T15:26:13.458Z,4.87
2018-10-03T15:28:42.445Z,3.07
2018-10-03T15:31:11.297Z,1.63
2018-10-03T15:33:39.837Z,2.57
2018-10-03T15:36:08.973Z,1.77
2018-10-03T15:38:37.873Z,2.93
2018-10-03T15:41:06.744Z,5.17
2018-10-03T15:43:35.681Z,3.30
2018-10-03T15:46:05.489Z,2.50
2018-10-03T15:48:35.003Z,3.03
2018-10-03T15:51:03.869Z,5.20
2018-10-03T15:53:32.549Z,1.83
2018-10-03T15:56:01.945Z,1.30
2018-10-03T15:58:31.075Z,2.77
2018-10-03T16:01:00.453Z,1.90
2018-10-03T16:03:29.381Z,4.33
2018-10-03T16:05:58.470Z,3.20
2018-10-03T16:08:27.522Z,3.27
2018-10-03T16:10:56.745Z,1.80
2018-10-03T16:13:25.971Z,2.13
2018-10-03T16:15:54.753Z,2.33
2018-10-03T16:18:23.977Z,2.10
2018-10-03T16:20:53.606Z,2.77
2018-10-03T16:23:22.265Z,1.87
2018-10-03T16:25:51.648Z,4.30
2018-10-03T16:28:20.545Z,2.70
2018-10-03T16:30:48.952Z,2.57
2018-10-03T16:33:18.783Z,6.27
2018-10-03T16:35:47.681Z,2.10
2018-10-03T16:38:16.533Z,5.53
2018-10-03T16:40:46.096Z,3.90
2018-10-03T16:43:14.809Z,4.77
2018-10-03T16:45:43.459Z,4.80
2018-10-03T16:48:12.325Z,5.50
2018-10-03T16:50:41.317Z,7.67
2018-10-03T16:53:10.043Z,15.10
2018-10-03T16:55:39.956Z,8.10
2018-10-03T16:58:09.061Z,8.23
2018-10-03T17:00:37.978Z,9.53
2018-10-03T17:03:07.595Z,6.10
2018-10-03T17:05:37.425Z,8.57
2018-10-03T17:08:06.895Z,7.20
2018-10-03T17:10:40.172Z,7.93
2018-10-03T17:13:09.591Z,3.43
2018-10-03T17:15:40.137Z,7.17
2018-10-03T17:18:09.478Z,12.43
2018-10-03T17:20:38.576Z,14.87
2018-10-03T17:23:08.123Z,15.73
2018-10-03T17:25:37.677Z,5.47
2018-10-03T17:28:08.178Z,11.07
2018-10-03T17:30:37.017Z,16.90
2018-10-03T17:33:06.766Z,11.17
2018-10-03T17:35:36.195Z,8.33
2018-10-03T17:38:05.915Z,12.47
2018-10-03T17:40:35.399Z,6.40
2018-10-03T17:43:04.983Z,10.73
2018-10-03T17:45:34.653Z,10.97
2018-10-03T17:48:04.505Z,13.70
2018-10-03T17:50:33.486Z,15.23
2018-10-03T17:53:03.896Z,19.00
2018-10-03T17:55:33.449Z,7.93
2018-10-03T17:58:03.738Z,9.17
2018-10-03T18:00:32.675Z,14.57
2018-10-03T18:03:02.438Z,10.90
2018-10-03T18:05:32.918Z,15.10
2018-10-03T18:08:02.538Z,21.73
2018-10-03T18:10:32.202Z,19.93
2018-10-03T18:13:02.285Z,31.83
2018-10-03T18:15:32.311Z,24.17
2018-10-03T18:18:02.815Z,31.07
2018-10-03T18:20:32.271Z,29.37
2018-10-03T18:23:01.978Z,25.87
2018-10-03T18:25:32.687Z,40.93
2018-10-03T18:28:02.274Z,34.70
2018-10-03T18:30:32.615Z,48.17
2018-10-03T18:33:01.934Z,37.47
2018-10-03T18:35:31.505Z,44.77
2018-10-03T18:38:01.424Z,42.03
2018-10-03T18:40:35.694Z,32.37
2018-10-03T18:43:05.777Z,41.67
2018-10-03T18:45:35.984Z,37.00
2018-10-03T18:48:05.241Z,30.17
2018-10-03T18:50:35.947Z,24.17
2018-10-03T18:53:05.360Z,15.10
2018-10-03T18:55:34.727Z,26.37
2018-10-03T18:58:04.061Z,21.73
2018-10-03T19:00:33.847Z,10.93
2018-10-03T19:03:03.245Z,18.23
2018-10-03T19:05:33.565Z,14.53
2018-10-03T19:08:03.540Z,15.27
2018-10-03T19:10:33.447Z,14.07
2018-10-03T19:13:03.588Z,9.87
2018-10-03T19:15:32.940Z,10.17
2018-10-03T19:18:02.214Z,13.57
2018-10-03T19:20:32.398Z,13.50
2018-10-03T19:23:02.420Z,8.30
2018-10-03T19:25:32.270Z,6.47
2018-10-03T19:28:03.044Z,12.17
2018-10-03T19:30:33.085Z,11.00
2018-10-03T19:33:03.612Z,7.37
2018-10-03T19:35:32.938Z,7.90
2018-10-03T19:38:02.464Z,8.77
2018-10-03T19:40:32.433Z,8.20
2018-10-03T19:43:02.313Z,7.40
2018-10-03T19:45:31.538Z,7.40
2018-10-03T19:48:00.842Z,4.67
2018-10-03T19:50:30.740Z,6.10
2018-10-03T19:53:01.073Z,8.27
2018-10-03T19:55:31.012Z,11.73
2018-10-03T19:58:00.803Z,7.53
2018-10-03T20:00:30.398Z,8.93
2018-10-03T20:03:00.013Z,7.47
2018-10-03T20:05:29.273Z,4.90
2018-10-03T20:07:59.240Z,8.57
2018-10-03T20:10:29.510Z,6.20
2018-10-03T20:12:59.265Z,9.47
2018-10-03T20:15:28.882Z,9.53
2018-10-03T20:17:58.621Z,7.97
2018-10-03T20:20:28.559Z,9.13
2018-10-03T20:22:58.398Z,8.77
2018-10-03T20:25:27.929Z,9.00
2018-10-03T20:27:57.687Z,8.40
2018-10-03T20:30:27.467Z,8.80
2018-10-03T20:32:57.363Z,6.47
2018-10-03T20:35:26.453Z,10.40
2018-10-03T20:37:55.498Z,7.07
2018-10-03T20:40:24.859Z,6.27
2018-10-03T20:42:53.405Z,7.40
2018-10-03T20:45:22.330Z,8.30
2018-10-03T20:47:52.100Z,9.57
2018-10-03T20:50:22.267Z,13.33
2018-10-03T20:52:51.557Z,9.03
2018-10-03T20:55:20.486Z,6.33
2018-10-03T20:57:49.670Z,9.73
2018-10-03T21:00:19.318Z,4.93
2018-10-03T21:02:48.383Z,6.47
2018-10-03T21:05:17.341Z,6.20
2018-10-03T21:07:46.083Z,6.40
2018-10-03T21:10:15.253Z,8.40
2018-10-03T21:12:44.422Z,7.13
2018-10-03T21:15:13.382Z,10.03
2018-10-03T21:17:42.300Z,7.27
2018-10-03T21:20:11.845Z,8.17
2018-10-03T21:22:40.673Z,8.87
2018-10-03T21:25:09.229Z,9.70
2018-10-03T21:27:38.449Z,5.90
2018-10-03T21:30:07.653Z,6.50
2018-10-03T21:32:36.932Z,6.87
2018-10-03T21:35:06.588Z,7.23
2018-10-03T21:37:35.367Z,6.37
2018-10-03T21:40:04.902Z,4.43
2018-10-03T21:42:34.005Z,6.47
2018-10-03T21:45:02.657Z,7.00
2018-10-03T21:47:31.561Z,5.80
2018-10-03T21:50:00.733Z,8.33
2018-10-03T21:52:29.361Z,6.73
2018-10-03T21:54:58.521Z,8.57
2018-10-03T21:57:27.886Z,5.50
2018-10-03T21:59:57.471Z,8.70
2018-10-03T22:02:26.164Z,4.43
2018-10-03T22:04:55.041Z,6.13
2018-10-03T22:07:24.493Z,4.87
2018-10-03T22:09:54.180Z,8.27
2018-10-03T22:12:23.259Z,5.77
2018-10-03T22:14:52.249Z,6.50
2018-10-03T22:17:24.154Z,7.13
2018-10-03T22:19:54.615Z,5.30
2018-10-03T22:22:24.703Z,7.20
2018-10-03T22:24:54.187Z,7.83
2018-10-03T22:27:24.559Z,4.93
2018-10-03T22:29:53.329Z,6.43
2018-10-03T22:32:22.338Z,5.67
2018-10-03T22:34:51.645Z,8.70
2018-10-03T22:37:20.944Z,6.80
2018-10-03T22:39:49.880Z,7.43
2018-10-03T22:42:18.781Z,6.73
2018-10-03T22:44:47.976Z,7.20
2018-10-03T22:47:16.578Z,7.30
2018-10-03T22:49:45.752Z,6.27
2018-10-03T22:52:14.677Z,6.43
2018-10-03T22:54:43.877Z,5.80
2018-10-03T22:57:13.177Z,4.90
2018-10-03T22:59:42.852Z,8.33
2018-10-03T23:02:12.132Z,7.10
2018-10-03T23:04:41.029Z,7.03
2018-10-03T23:07:10.412Z,9.10
2018-10-03T23:09:40.237Z,7.13
2018-10-03T23:12:09.129Z,6.90
2018-10-03T23:14:38.914Z,6.03
2018-10-03T23:17:07.964Z,9.17
2018-10-03T23:19:36.837Z,7.27
2018-10-03T23:22:06.017Z,9.47
2018-10-03T23:24:34.894Z,7.87
2018-10-03T23:27:04.222Z,9.60
2018-10-03T23:29:33.429Z,6.77
2018-10-03T23:32:02.306Z,6.40
2018-10-03T23:34:31.241Z,6.77
2018-10-03T23:37:00.425Z,5.03
2018-10-03T23:39:29.756Z,3.80
2018-10-03T23:41:58.364Z,6.90
2018-10-03T23:44:27.409Z,5.07
2018-10-03T23:46:56.869Z,6.27
2018-10-03T23:49:26.733Z,4.20
2018-10-03T23:51:55.237Z,5.80
2018-10-03T23:54:24.271Z,5.80
2018-10-03T23:56:53.238Z,3.97
2018-10-03T23:59:23.062Z,3.57
